Time;durP1;ratioP1;P1;durP2;ratioP2;P2;SDS_P1;SDS_P2;PMS_P1;PMS_P2;Temp;Humidity;BMP_temperature;BMP_pressure;BME280_temperature;BME280_humidity;BME280_pressure;Samples;Min_cycle;Max_cycle;Signal;HPM_P1;HPM_P2
2022/05/03 00:01:28;;;;;;;11.57;6.57;;;;;;;10.76;66.85;101557.59;5069432;28;20465;-78
2022/05/03 00:03:59;;;;;;;11.75;7.00;;;;;;;10.69;66.55;101557.31;5086576;28;20042;-79
2022/05/03 00:06:56;;;;;;;11.82;7.38;;;;;;;10.69;66.80;101557.31;5087028;27;20038;-76
2022/05/03 00:09:39;;;;;;;12.30;7.50;;;;;;;10.67;67.11;101543.66;5111870;27;20044;-77
2022/05/03 00:12:08;;;;;;;9.45;7.00;;;;;;;10.69;66.95;101557.31;5108910;27;20061;-76
2022/05/03 00:14:44;;;;;;;14.07;7.57;;;;;;;10.65;66.81;101552.53;5097906;28;20036;-80
2022/05/03 00:17:12;;;;;;;12.45;6.93;;;;;;;10.64;66.92;101551.72;5101129;27;20135;-76
2022/05/03 00:19:38;;;;;;;16.23;9.00;;;;;;;10.67;66.93;101542.84;5083324;27;20030;-77
2022/05/03 00:22:04;;;;;;;10.98;6.88;;;;;;;10.62;67.00;101535.47;5087842;27;20073;-76
2022/05/03 00:24:30;;;;;;;15.23;7.70;;;;;;;10.62;67.20;101543.25;5094384;27;20038;-77
2022/05/03 00:26:57;;;;;;;11.43;7.57;;;;;;;10.56;67.58;101546.41;5081337;27;20040;-76
2022/05/03 00:29:26;;;;;;;10.90;7.28;;;;;;;10.50;67.32;101541.75;5087869;27;20043;-76
2022/05/03 00:31:51;;;;;;;11.02;7.07;;;;;;;10.42;67.47;101544.22;5101782;27;20077;-77
2022/05/03 00:34:17;;;;;;;16.00;7.82;;;;;;;10.36;68.05;101536.97;5123561;27;20031;-76
2022/05/03 00:36:42;;;;;;;11.50;7.10;;;;;;;10.32;68.32;101533.84;5118884;27;20031;-76
2022/05/03 00:39:08;;;;;;;17.35;7.57;;;;;;;10.33;68.45;101538.09;5084768;27;20031;-76
2022/05/03 00:41:46;;;;;;;13.63;7.60;;;;;;;10.26;68.75;101531.78;5088546;28;20088;-77
2022/05/03 00:47:14;;;;;;;16.42;7.60;;;;;;;10.20;68.09;101537.50;5105201;27;20044;-76
2022/05/03 00:50:11;;;;;;;12.45;7.13;;;;;;;10.08;68.51;101540.22;5090238;28;20032;-76
2022/05/03 00:52:47;;;;;;;13.65;8.00;;;;;;;10.01;68.79;101531.34;5110562;27;20036;-78
2022/05/03 00:55:33;;;;;;;13.52;7.13;;;;;;;10.02;68.35;101539.94;5091220;27;20039;-76
2022/05/03 00:58:08;;;;;;;12.35;7.10;;;;;;;10.00;68.69;101544.44;5098893;27;20036;-76
2022/05/03 01:01:01;;;;;;;10.05;6.53;;;;;;;10.01;68.93;101544.28;5105467;28;20107;-77
2022/05/03 01:03:48;;;;;;;12.63;7.35;;;;;;;9.98;69.46;101541.97;5113785;27;20032;-76
2022/05/03 01:06:26;;;;;;;14.30;7.85;;;;;;;9.88;69.39;101541.94;5088512;28;20042;-78
2022/05/03 01:09:04;;;;;;;11.82;6.95;;;;;;;9.87;69.74;101542.06;5105521;27;20023;-78
2022/05/03 01:11:46;;;;;;;14.80;7.65;;;;;;;9.78;69.03;101548.09;5086087;28;20043;-77
2022/05/03 01:14:20;;;;;;;16.30;7.40;;;;;;;9.79;69.09;101547.91;5091572;28;20046;-79
2022/05/03 01:16:53;;;;;;;13.25;7.80;;;;;;;9.79;69.24;101550.50;5094721;27;20146;-76
2022/05/03 01:19:40;;;;;;;12.85;7.40;;;;;;;9.78;69.57;101548.09;5088279;27;20045;-76
2022/05/03 01:22:08;;;;;;;14.95;7.15;;;;;;;9.73;69.50;101548.47;5096724;27;20408;-77
2022/05/03 01:25:11;;;;;;;14.43;7.45;;;;;;;9.74;69.65;101540.56;5110565;27;20035;-76
2022/05/03 01:27:56;;;;;;;9.50;6.75;;;;;;;9.68;69.51;101550.63;5075400;28;20510;-76
2022/05/03 01:30:21;;;;;;;10.30;7.10;;;;;;;9.61;69.61;101541.75;5113892;27;20031;-76
2022/05/03 01:32:50;;;;;;;12.10;7.35;;;;;;;9.58;70.07;101540.22;5107242;27;20549;-76
2022/05/03 01:35:21;;;;;;;11.77;6.60;;;;;;;9.55;70.34;101546.50;5093453;28;20057;-78
2022/05/03 01:38:08;;;;;;;13.60;8.00;;;;;;;9.47;70.55;101542.91;5102987;27;20024;-76
2022/05/03 01:40:59;;;;;;;19.13;8.55;;;;;;;9.45;70.42;101547.41;5101823;27;20020;-76
2022/05/03 01:43:56;;;;;;;14.63;7.68;;;;;;;9.44;70.76;101549.19;5083645;28;20063;-76
2022/05/03 01:46:24;;;;;;;15.75;8.20;;;;;;;9.37;71.04;101548.06;5099151;27;20067;-76
2022/05/03 01:51:44;;;;;;;11.68;7.32;;;;;;;9.24;71.31;101547.47;5086435;27;20055;-77
2022/05/03 01:54:53;;;;;;;14.48;8.30;;;;;;;9.22;70.82;101549.34;5101196;27;20464;-76
2022/05/03 01:57:48;;;;;;;15.07;7.82;;;;;;;9.13;71.24;101545.75;5086088;28;20296;-78
2022/05/03 02:00:14;;;;;;;15.18;8.27;;;;;;;9.09;71.50;101552.16;5058690;28;20032;-77
2022/05/03 02:03:03;;;;;;;14.38;8.23;;;;;;;9.01;71.47;101550.19;5098525;28;20109;-76
2022/05/03 02:05:51;;;;;;;11.43;6.93;;;;;;;9.00;71.38;101539.97;5119752;27;20084;-77
2022/05/03 02:08:22;;;;;;;19.23;8.85;;;;;;;8.95;71.52;101542.94;5104445;28;20076;-76
2022/05/03 02:11:15;;;;;;;18.48;9.02;;;;;;;8.93;71.42;101544.84;5082981;28;20032;-75
2022/05/03 02:16:43;;;;;;;12.85;7.90;;;;;;;8.90;71.84;101542.50;5069614;27;20128;-76
2022/05/03 02:19:57;;;;;;;15.40;8.20;;;;;;;8.87;71.80;101535.00;5086313;28;20031;-77
2022/05/03 02:22:28;;;;;;;;;;;;;;;8.88;71.08;101532.28;5053226;28;20130;-77
2022/05/03 02:25:02;;;;;;;13.45;7.78;;;;;;;8.85;71.52;101531.72;5121306;27;20386;-79
2022/05/03 02:27:31;;;;;;;17.08;7.95;;;;;;;8.82;71.63;101527.63;5094749;28;20029;-75
2022/05/03 02:29:58;;;;;;;10.98;7.03;;;;;;;8.81;71.88;101528.56;5093142;27;20026;-77
2022/05/03 02:33:01;;;;;;;14.68;8.45;;;;;;;8.73;71.75;101526.59;5106180;27;20023;-77
2022/05/03 02:35:34;;;;;;;14.95;8.23;;;;;;;8.67;71.86;101527.13;5095152;27;20046;-79
2022/05/03 02:38:04;;;;;;;14.48;9.00;;;;;;;8.64;72.12;101526.53;5087605;27;20044;-76
2022/05/03 02:40:31;;;;;;;13.80;7.43;;;;;;;8.60;72.28;101532.91;5083846;28;20081;-76
2022/05/03 02:42:57;;;;;;;17.15;8.50;;;;;;;8.52;72.24;101531.75;5116439;27;20028;-76
2022/05/03 02:45:23;;;;;;;17.33;8.35;;;;;;;8.46;72.15;101531.47;5116583;27;20364;-77
2022/05/03 02:48:07;;;;;;;18.85;9.05;;;;;;;8.44;72.52;101535.91;5080737;28;20379;-76
2022/05/03 02:50:44;;;;;;;16.13;8.82;;;;;;;8.37;72.57;101528.63;5107983;27;20047;-75
2022/05/03 02:53:47;;;;;;;14.07;8.35;;;;;;;8.38;72.39;101526.84;5061177;28;20043;-75
2022/05/03 02:56:23;;;;;;;22.92;9.75;;;;;;;8.41;72.32;101531.78;5096733;28;20057;-75
2022/05/03 03:01:47;;;;;;;23.05;9.23;;;;;;;8.33;72.23;101535.00;5106440;28;20085;-76
2022/05/03 03:02:21;;;;;;;12.18;7.60;;;;;;;8.30;72.45;101532.63;5099043;28;20055;-76
2022/05/03 03:05:03;;;;;;;15.23;8.57;;;;;;;8.32;72.52;101535.09;5103311;28;20070;-76
2022/05/03 03:07:41;;;;;;;14.40;8.60;;;;;;;8.30;72.55;101531.81;5099670;28;20040;-76
2022/05/03 03:10:12;;;;;;;11.50;7.30;;;;;;;8.27;72.22;101527.75;5083258;28;20039;-77
2022/05/03 03:13:02;;;;;;;15.73;7.85;;;;;;;8.25;72.17;101534.78;5104993;28;20126;-76
2022/05/03 03:15:29;;;;;;;14.07;8.38;;;;;;;8.21;71.89;101528.22;5088960;28;20400;-77
2022/05/03 03:17:57;;;;;;;13.93;8.15;;;;;;;8.18;72.07;101536.22;5068532;28;20089;-76
2022/05/03 03:20:25;;;;;;;12.10;7.75;;;;;;;8.13;72.32;101530.59;5082251;28;20036;-78
2022/05/03 03:22:51;;;;;;;16.02;8.18;;;;;;;8.09;72.54;101531.78;5068620;28;20480;-76
2022/05/03 03:25:19;;;;;;;14.02;8.00;;;;;;;8.08;72.79;101532.72;5085929;28;20050;-76
2022/05/03 03:27:47;;;;;;;12.35;7.47;;;;;;;8.03;72.87;101527.94;5117640;27;20035;-78
2022/05/03 03:30:14;;;;;;;14.88;7.53;;;;;;;8.03;72.87;101532.28;5107305;28;20549;-79
2022/05/03 03:32:56;;;;;;;12.85;7.78;;;;;;;7.94;72.40;101524.28;5087048;28;20169;-76
2022/05/03 03:35:21;;;;;;;13.20;7.55;;;;;;;7.92;71.98;101522.78;5073062;28;20113;-79
2022/05/03 03:37:51;;;;;;;11.65;6.57;;;;;;;7.92;71.91;101528.75;5082398;27;20035;-77
2022/05/03 03:40:19;;;;;;;13.45;7.45;;;;;;;7.84;71.91;101523.38;5110827;27;20027;-76
2022/05/03 03:42:46;;;;;;;14.75;6.88;;;;;;;7.76;71.99;101524.00;5122192;27;20116;-77
2022/05/03 03:45:13;;;;;;;12.23;6.72;;;;;;;7.74;72.17;101522.44;5077395;27;20573;-77
2022/05/03 03:47:40;;;;;;;11.25;7.03;;;;;;;7.70;72.31;101526.22;5111080;27;20032;-77
2022/05/03 03:50:07;;;;;;;20.02;7.20;;;;;;;7.74;71.87;101527.63;5091454;27;20034;-79
2022/05/03 03:52:34;;;;;;;14.30;6.82;;;;;;;7.69;72.39;101522.81;5101219;27;20060;-76
2022/05/03 03:55:01;;;;;;;11.60;7.00;;;;;;;7.67;72.08;101529.06;5104054;28;20666;-76
2022/05/03 03:57:27;;;;;;;16.73;7.20;;;;;;;7.70;72.36;101532.19;5084702;27;20072;-77
2022/05/03 03:59:53;;;;;;;12.07;6.97;;;;;;;7.65;72.47;101531.75;5072532;28;20563;-77
2022/05/03 04:02:20;;;;;;;11.15;6.95;;;;;;;7.64;72.42;101532.69;5090351;28;20028;-77
2022/05/03 04:04:47;;;;;;;15.52;7.13;;;;;;;7.55;71.74;101539.38;5109712;27;20039;-76
2022/05/03 04:07:12;;;;;;;11.98;6.00;;;;;;;7.54;72.21;101540.31;5102132;28;20081;-78
2022/05/03 04:09:38;;;;;;;14.27;6.88;;;;;;;7.54;72.14;101536.91;5073021;28;20028;-76
2022/05/03 04:12:05;;;;;;;9.93;6.22;;;;;;;7.49;72.21;101544.19;5120660;27;20150;-76
2022/05/03 04:14:31;;;;;;;15.48;7.03;;;;;;;7.45;71.98;101541.03;5074243;28;20416;-77
2022/05/03 04:16:57;;;;;;;10.20;6.03;;;;;;;7.42;72.08;101538.66;5090107;28;20088;-76
2022/05/03 04:19:23;;;;;;;10.27;6.55;;;;;;;7.46;72.50;101540.09;5103499;27;20467;-78
2022/05/03 04:21:49;;;;;;;10.35;6.47;;;;;;;7.48;72.63;101538.22;5088730;27;20023;-81
2022/05/03 04:24:15;;;;;;;10.45;5.97;;;;;;;7.45;72.62;101535.03;5089423;28;20119;-80
2022/05/03 04:26:41;;;;;;;14.25;7.57;;;;;;;7.44;72.31;101541.97;5106027;27;20062;-76
2022/05/03 04:29:06;;;;;;;10.45;5.82;;;;;;;7.38;72.56;101545.00;5105817;27;20088;-75
2022/05/03 04:31:33;;;;;;;9.80;6.30;;;;;;;7.41;72.70;101550.75;5087873;27;20035;-77
2022/05/03 04:34:02;;;;;;;10.95;6.07;;;;;;;7.39;72.98;101549.22;5108052;27;20038;-75
2022/05/03 04:36:29;;;;;;;12.02;6.40;;;;;;;7.39;72.70;101554.41;5105829;27;20126;-80
2022/05/03 04:38:55;;;;;;;10.43;6.57;;;;;;;7.34;73.26;101554.72;5097855;28;20032;-78
2022/05/03 04:41:21;;;;;;;10.98;6.43;;;;;;;7.33;72.90;101555.69;5100213;28;20061;-76
2022/05/03 04:43:47;;;;;;;9.55;6.00;;;;;;;7.39;73.01;101549.22;5085977;27;21900;-77
2022/05/03 04:46:12;;;;;;;10.00;6.50;;;;;;;7.34;72.93;101553.91;5108264;27;20427;-77
2022/05/03 04:48:38;;;;;;;12.13;6.28;;;;;;;7.34;73.06;101562.47;5087989;27;20040;-77
2022/05/03 04:51:03;;;;;;;17.17;6.80;;;;;;;7.33;73.07;101553.09;5086839;28;20044;-78
2022/05/03 04:53:29;;;;;;;12.80;5.72;;;;;;;7.34;73.30;101565.06;5100744;27;20040;-80
2022/05/03 04:55:54;;;;;;;11.00;6.75;;;;;;;7.36;73.53;101564.94;5101402;27;20111;-78
2022/05/03 04:58:20;;;;;;;11.85;6.78;;;;;;;7.38;73.78;101557.91;5088609;28;20057;-77
2022/05/03 05:00:45;;;;;;;12.77;6.35;;;;;;;7.40;74.21;101566.34;5087485;28;20032;-78
2022/05/03 05:03:11;;;;;;;13.90;6.55;;;;;;;7.41;74.03;101565.41;5059202;28;20047;-78
2022/05/03 05:05:36;;;;;;;10.73;6.28;;;;;;;7.43;73.89;101573.06;5086911;27;20081;-77
2022/05/03 05:08:05;;;;;;;14.88;6.35;;;;;;;7.45;74.10;101569.41;5090034;27;20345;-78
2022/05/03 05:10:32;;;;;;;14.10;7.18;;;;;;;7.49;74.18;101570.81;5106230;27;20043;-79
2022/05/03 05:13:02;;;;;;;10.95;6.47;;;;;;;7.53;73.88;101577.38;5104979;27;20522;-78
2022/05/03 05:15:28;;;;;;;16.13;7.28;;;;;;;7.59;73.97;101578.66;5088266;28;20098;-77
2022/05/03 05:17:57;;;;;;;12.85;6.57;;;;;;;7.59;73.58;101573.50;5093621;28;20057;-77
2022/05/03 05:20:24;;;;;;;9.63;6.57;;;;;;;7.64;73.88;101573.16;5086405;28;20035;-76
2022/05/03 05:22:50;;;;;;;13.52;7.07;;;;;;;7.66;73.45;101569.53;5103513;27;20032;-77
2022/05/03 05:25:16;;;;;;;12.85;7.40;;;;;;;7.64;73.25;101579.13;5088360;28;20042;-78
2022/05/03 05:27:41;;;;;;;14.23;7.80;;;;;;;7.70;73.81;101583.00;5086987;27;20060;-77
2022/05/03 05:30:08;;;;;;;11.15;6.75;;;;;;;7.70;73.04;101590.75;5085816;28;20035;-78
2022/05/03 05:32:34;;;;;;;13.98;6.70;;;;;;;7.72;72.61;101575.97;5087183;28;21186;-79
2022/05/03 05:34:59;;;;;;;13.38;6.70;;;;;;;7.78;72.85;101578.91;5119781;27;20400;-78
2022/05/03 05:37:25;;;;;;;13.98;6.30;;;;;;;7.81;72.00;101577.84;5101675;27;20024;-77
2022/05/03 05:39:50;;;;;;;12.30;6.85;;;;;;;7.91;71.42;101583.09;5099586;27;20475;-77
2022/05/03 05:42:16;;;;;;;16.25;6.90;;;;;;;7.91;71.53;101590.84;5072096;27;20027;-78
2022/05/03 05:44:41;;;;;;;12.13;6.45;;;;;;;7.94;71.43;101585.47;5095369;28;20069;-77
2022/05/03 05:47:07;;;;;;;17.02;6.28;;;;;;;7.96;71.40;101592.13;5081636;28;20057;-77
2022/05/03 05:49:32;;;;;;;11.93;7.25;;;;;;;8.09;70.97;101589.44;5102252;27;20028;-80
2022/05/03 05:54:42;;;;;;;12.60;7.00;;;;;;;8.55;69.27;101597.91;5102873;28;20023;-76
2022/05/03 05:57:08;;;;;;;11.95;5.70;;;;;;;8.83;67.71;101596.50;5071066;28;20601;-78
2022/05/03 05:59:33;;;;;;;14.88;6.40;;;;;;;9.18;66.12;101594.56;5070426;28;20664;-78
2022/05/03 06:01:59;;;;;;;13.73;6.43;;;;;;;9.46;65.45;101593.06;5086194;28;20023;-81
2022/05/03 06:04:27;;;;;;;10.50;6.05;;;;;;;9.71;64.84;101596.97;5113318;27;20397;-77
2022/05/03 06:06:54;;;;;;;12.05;6.32;;;;;;;10.07;63.85;101594.75;5108373;27;20036;-78
2022/05/03 06:09:19;;;;;;;11.15;6.10;;;;;;;10.33;63.22;101595.94;5115104;27;20110;-77
2022/05/03 06:11:45;;;;;;;11.23;6.18;;;;;;;10.58;61.57;101596.34;5087141;28;20127;-79
2022/05/03 06:14:10;;;;;;;14.25;6.07;;;;;;;10.81;59.26;101594.31;5084669;28;20039;-77
2022/05/03 06:16:57;;;;;;;12.40;5.90;;;;;;;10.82;59.88;101597.72;5069233;27;20026;-78
2022/05/03 06:19:23;;;;;;;13.40;5.97;;;;;;;10.76;59.63;101606.88;5086723;28;20035;-77
2022/05/03 06:21:49;;;;;;;10.20;5.95;;;;;;;10.80;58.87;101600.44;5068324;28;20484;-78
2022/05/03 06:24:15;;;;;;;13.25;5.93;;;;;;;10.73;58.55;101601.94;5081148;28;20062;-82
2022/05/03 06:26:41;;;;;;;15.45;5.88;;;;;;;10.89;58.42;101607.41;5099708;27;20541;-78
2022/05/03 06:29:08;;;;;;;11.20;5.15;;;;;;;11.15;57.81;101606.00;5099990;28;20024;-78
2022/05/03 06:31:44;;;;;;;15.65;5.88;;;;;;;11.29;57.62;101611.56;5078358;28;20107;-80
2022/05/03 06:34:10;;;;;;;8.88;4.80;;;;;;;11.38;56.89;101612.50;5076207;28;20032;-77
2022/05/03 06:36:36;;;;;;;9.48;5.15;;;;;;;11.33;56.40;101613.88;5082661;28;20038;-78
2022/05/03 06:39:05;;;;;;;8.57;5.38;;;;;;;11.22;55.76;101617.44;5031413;28;20030;-77
2022/05/03 06:41:32;;;;;;;7.68;4.88;;;;;;;11.19;56.70;101617.72;5090754;27;20027;-77
2022/05/03 06:43:58;;;;;;;13.90;6.70;;;;;;;11.15;56.89;101617.22;5118473;27;20114;-77
2022/05/03 06:46:27;;;;;;;12.00;4.75;;;;;;;11.21;56.51;101623.63;5114904;27;20032;-78
2022/05/03 06:48:53;;;;;;;9.57;5.10;;;;;;;10.97;55.75;101617.09;5100654;27;20475;-78
2022/05/03 06:51:19;;;;;;;11.30;4.57;;;;;;;11.08;56.18;101618.72;5092852;28;20209;-78
2022/05/03 06:53:45;;;;;;;6.72;4.65;;;;;;;11.27;56.16;101621.25;5104486;27;20032;-78
2022/05/03 06:56:11;;;;;;;8.90;4.50;;;;;;;11.75;54.86;101626.44;5073636;28;20036;-77
2022/05/03 06:58:36;;;;;;;13.63;5.18;;;;;;;12.14;53.33;101627.09;5089935;28;20499;-81
2022/05/03 07:01:12;;;;;;;8.50;4.25;;;;;;;12.58;51.64;101618.56;5086085;28;20030;-77
2022/05/03 07:03:38;;;;;;;7.85;4.60;;;;;;;12.71;51.12;101624.22;5069787;28;20044;-82
2022/05/03 07:06:04;;;;;;;7.72;3.90;;;;;;;13.36;49.88;101623.09;5105419;28;20031;-79
2022/05/03 07:08:31;;;;;;;8.18;4.32;;;;;;;13.85;48.69;101623.31;5088246;28;20024;-78
2022/05/03 07:10:56;;;;;;;7.63;4.63;;;;;;;13.88;46.56;101624.78;5092686;28;20046;-78
2022/05/03 07:13:25;;;;;;;10.00;3.67;;;;;;;14.13;45.98;101626.50;5090806;27;20039;-78
2022/05/03 07:15:51;;;;;;;9.95;4.05;;;;;;;14.32;44.27;101624.59;5118609;27;20452;-78
2022/05/03 07:23:45;;;;;;;5.78;3.80;;;;;;;15.31;42.71;101617.56;5108051;27;20039;-78
2022/05/03 07:26:11;;;;;;;10.73;3.65;;;;;;;15.63;43.25;101621.84;5096744;28;20042;-77
2022/05/03 07:28:37;;;;;;;6.40;3.10;;;;;;;15.96;42.35;101619.94;5109328;27;20031;-78
2022/05/03 07:31:02;;;;;;;10.20;3.75;;;;;;;16.10;41.22;101628.06;5132295;27;20031;-79
2022/05/03 07:33:28;;;;;;;5.70;3.00;;;;;;;16.25;40.21;101621.09;5092168;27;20063;-78
2022/05/03 07:35:53;;;;;;;6.55;3.35;;;;;;;16.11;38.94;101625.28;5103695;27;20027;-79
2022/05/03 07:38:19;;;;;;;6.90;3.20;;;;;;;16.03;39.55;101627.94;5092059;27;20028;-78
2022/05/03 07:40:44;;;;;;;4.90;2.65;;;;;;;16.20;39.68;101623.44;5094592;27;20384;-77
2022/05/03 07:43:10;;;;;;;3.88;2.67;;;;;;;16.47;38.70;101616.06;5084308;28;20032;-77
2022/05/03 07:45:35;;;;;;;4.15;2.60;;;;;;;16.45;38.65;101620.66;5046439;27;20093;-78
2022/05/03 07:48:00;;;;;;;5.65;2.60;;;;;;;16.55;38.15;101615.97;5093494;28;20032;-80
2022/05/03 07:50:26;;;;;;;3.83;2.55;;;;;;;17.03;38.62;101621.81;5086468;27;20032;-78
2022/05/03 07:52:52;;;;;;;15.48;6.28;;;;;;;17.29;36.92;101616.16;5126377;27;20039;-79
2022/05/03 07:55:17;;;;;;;4.38;2.95;;;;;;;17.18;36.91;101616.59;5076605;28;20042;-81
2022/05/03 07:57:43;;;;;;;6.65;2.50;;;;;;;17.12;36.02;101612.88;5089853;28;20036;-79
2022/05/03 08:00:10;;;;;;;3.28;2.38;;;;;;;17.71;36.38;101617.28;5087018;28;20427;-78
2022/05/03 08:02:35;;;;;;;3.08;2.20;;;;;;;17.27;35.36;101615.53;5067914;27;20133;-80
2022/05/03 08:05:01;;;;;;;3.15;2.00;;;;;;;17.25;36.14;101614.88;5077496;28;20536;-78
2022/05/03 08:07:26;;;;;;;3.70;2.30;;;;;;;17.77;36.63;101613.13;5090991;27;20028;-80
2022/05/03 08:09:53;;;;;;;7.35;2.10;;;;;;;17.81;35.71;101609.13;5077927;27;20031;-79
2022/05/03 08:12:20;;;;;;;2.35;1.73;;;;;;;17.24;33.86;101615.06;5095610;27;20595;-79
2022/05/03 08:14:46;;;;;;;2.53;1.67;;;;;;;17.48;33.02;101622.66;5096537;27;20031;-80
2022/05/03 08:17:12;;;;;;;3.60;1.85;;;;;;;17.41;33.13;101623.56;5094973;28;20039;-78
2022/05/03 08:19:38;;;;;;;2.50;1.70;;;;;;;17.89;32.75;101627.44;5080757;27;20039;-78
2022/05/03 08:22:04;;;;;;;4.43;2.10;;;;;;;17.83;34.25;101630.75;5094279;27;20080;-77
2022/05/03 08:24:30;;;;;;;2.47;1.98;;;;;;;18.00;32.56;101620.88;5066732;27;20027;-78
2022/05/03 08:26:56;;;;;;;3.65;2.05;;;;;;;18.16;33.77;101632.13;5107988;27;20034;-78
2022/05/03 08:29:21;;;;;;;3.53;1.80;;;;;;;18.45;32.42;101629.41;5064427;28;20028;-79
2022/05/03 08:31:47;;;;;;;3.08;1.42;;;;;;;18.55;30.73;101625.66;5096590;27;20407;-79
2022/05/03 08:34:13;;;;;;;3.00;1.70;;;;;;;19.10;31.38;101629.34;5067859;27;20044;-78
2022/05/03 08:36:38;;;;;;;3.72;1.75;;;;;;;19.33;31.41;101626.44;5104025;27;20042;-79
2022/05/03 08:42:07;;;;;;;6.68;2.15;;;;;;;19.10;31.19;101629.34;5085773;28;20040;-78
2022/05/03 08:44:34;;;;;;;3.03;1.80;;;;;;;18.84;31.30;101633.41;5083938;28;20033;-78
2022/05/03 08:47:02;;;;;;;4.07;1.95;;;;;;;18.64;32.13;101630.56;5108771;27;20048;-77
2022/05/03 08:50:10;;;;;;;4.85;1.80;;;;;;;18.81;31.44;101625.91;5122650;27;20592;-79
2022/05/03 08:52:46;;;;;;;3.72;2.10;;;;;;;19.28;31.80;101628.03;4997035;28;20577;-78
2022/05/03 08:55:12;;;;;;;3.83;1.83;;;;;;;19.29;31.64;101629.66;5083981;27;20053;-78
2022/05/03 08:57:38;;;;;;;3.83;2.20;;;;;;;19.56;31.83;101634.03;5104084;27;20523;-78
2022/05/03 09:00:05;;;;;;;3.13;1.50;;;;;;;19.62;32.38;101624.56;5118932;27;20032;-79
2022/05/03 09:02:34;;;;;;;3.03;2.03;;;;;;;19.65;31.26;101624.97;5066407;28;20053;-80
2022/05/03 09:05:01;;;;;;;5.70;1.90;;;;;;;19.56;31.05;101636.66;5093699;28;20037;-78
2022/05/03 09:07:27;;;;;;;3.92;1.70;;;;;;;19.50;31.12;101632.19;5121912;27;20114;-77
2022/05/03 09:09:54;;;;;;;4.20;2.58;;;;;;;19.56;31.99;101631.41;5090541;27;20032;-78
2022/05/03 09:12:25;;;;;;;9.30;2.10;;;;;;;19.61;32.21;101634.28;5089588;27;20063;-77
2022/05/03 09:14:51;;;;;;;8.38;2.30;;;;;;;19.21;32.79;101641.13;5106556;27;20047;-76
2022/05/03 09:17:33;;;;;;;5.25;1.90;;;;;;;19.64;32.31;101631.22;5088026;28;20031;-78
2022/05/03 09:19:59;;;;;;;8.88;2.10;;;;;;;19.60;32.39;101637.91;5086664;28;20043;-77
2022/05/03 09:25:12;;;;;;;2.53;1.80;;;;;;;19.48;31.97;101638.63;4989064;28;20078;-65
2022/05/03 09:27:38;;;;;;;3.45;1.92;;;;;;;19.76;32.56;101638.59;5011089;27;20115;-66
2022/05/03 09:30:10;;;;;;;3.50;1.90;;;;;;;19.85;31.89;101642.69;5006236;28;20066;-66
2022/05/03 09:32:38;;;;;;;9.93;2.30;;;;;;;19.83;31.67;101635.00;5012936;28;20068;-66
2022/05/03 09:35:05;;;;;;;3.22;2.08;;;;;;;19.77;31.66;101640.22;5003024;28;20044;-66
2022/05/03 09:37:41;;;;;;;4.07;1.83;;;;;;;19.72;33.33;101639.97;5005047;28;20129;-66
2022/05/03 09:40:08;;;;;;;2.90;2.00;;;;;;;19.59;31.03;101643.34;5006824;28;20041;-66
2022/05/03 09:42:40;;;;;;;4.75;1.63;;;;;;;19.90;33.43;101640.28;5004473;28;20052;-66
2022/05/03 09:45:08;;;;;;;2.70;1.90;;;;;;;19.33;31.73;101649.31;4988066;28;20033;-65
2022/05/03 09:47:51;;;;;;;2.45;1.70;;;;;;;19.34;31.93;101646.47;5002668;28;20041;-66
2022/05/03 09:50:37;;;;;;;2.80;1.83;;;;;;;19.56;31.93;101643.75;5018248;28;20124;-66
2022/05/03 09:53:12;;;;;;;6.97;2.38;;;;;;;19.91;34.18;101628.75;5012325;28;20887;-66
2022/05/03 09:55:39;;;;;;;2.65;1.90;;;;;;;19.85;30.91;101637.41;5003449;28;20034;-66
2022/05/03 09:58:09;;;;;;;3.30;2.13;;;;;;;19.58;32.51;101636.47;5010786;28;20550;-66
2022/05/03 10:00:38;;;;;;;4.38;1.80;;;;;;;19.98;32.28;101647.19;5085663;27;20041;-65
2022/05/03 10:03:06;;;;;;;4.60;2.00;;;;;;;19.73;31.03;101634.56;5019096;28;20484;-65
2022/05/03 10:05:34;;;;;;;3.42;1.98;;;;;;;19.84;31.34;101625.28;4997660;28;20578;-66
2022/05/03 10:08:00;;;;;;;4.15;2.20;;;;;;;19.69;32.17;101625.41;5002814;28;20044;-66
2022/05/03 10:10:26;;;;;;;7.93;2.60;;;;;;;19.89;32.85;101624.69;4988664;28;20045;-66
2022/05/03 10:12:53;;;;;;;6.75;2.22;;;;;;;19.74;31.20;101625.66;5020007;28;20478;-65
2022/05/03 10:21:03;;;;;;;2.30;1.83;;;;;;;19.77;31.26;101625.25;4963789;28;20069;-66
2022/05/03 10:23:33;;;;;;;6.60;2.40;;;;;;;19.80;30.80;101626.69;4997894;28;20034;-66
2022/05/03 10:26:09;;;;;;;4.85;1.90;;;;;;;19.62;31.53;101620.09;5003533;28;20364;-66
2022/05/03 10:29:09;;;;;;;3.08;1.80;;;;;;;19.87;32.31;101619.59;4999155;28;20041;-66
2022/05/03 10:31:59;;;;;;;4.88;2.00;;;;;;;19.54;30.88;101611.59;5031750;28;20125;-66
2022/05/03 10:34:42;;;;;;;4.60;2.30;;;;;;;19.50;32.32;101608.53;5029581;27;20043;-66
2022/05/03 10:37:11;;;;;;;2.53;1.88;;;;;;;19.36;33.43;101618.16;5004293;28;20041;-65
2022/05/03 10:39:46;;;;;;;2.00;1.70;;;;;;;19.57;33.23;101614.63;5002215;28;20042;-66
2022/05/03 10:42:16;;;;;;;2.38;1.75;;;;;;;19.57;32.57;101614.63;5017278;28;20103;-66
2022/05/03 10:44:43;;;;;;;2.22;1.50;;;;;;;19.65;32.17;101606.56;4999645;28;20046;-66
2022/05/03 10:47:11;;;;;;;2.40;2.00;;;;;;;19.50;31.77;101605.91;5006296;28;20448;-65
2022/05/03 10:50:17;;;;;;;2.75;1.70;;;;;;;19.77;31.59;101606.03;5015768;28;20042;-66
2022/05/03 10:53:07;;;;;;;6.63;1.92;;;;;;;20.10;32.96;101598.22;5012957;28;20043;-65
2022/05/03 10:55:35;;;;;;;3.60;2.08;;;;;;;19.75;31.99;101600.16;5008623;28;20544;-65
2022/05/03 10:58:30;;;;;;;4.15;1.88;;;;;;;19.88;31.62;101588.88;4987817;28;20071;-65
2022/05/03 11:01:20;;;;;;;10.10;2.15;;;;;;;20.21;32.62;101599.44;4998096;28;20109;-66
2022/05/03 11:03:48;;;;;;;2.78;1.98;;;;;;;20.41;32.02;101595.00;5005113;28;22703;-66
2022/05/03 11:06:23;;;;;;;3.95;2.22;;;;;;;20.26;31.55;101590.94;5000617;28;20037;-66
2022/05/03 11:11:46;;;;;;;3.00;2.33;;;;;;;20.48;33.64;101594.22;5050708;28;20049;-66
2022/05/03 11:14:21;;;;;;;1.45;1.35;;;;;;;20.57;32.44;101593.81;5001918;28;20038;-66
2022/05/03 11:16:51;;;;;;;2.13;1.77;;;;;;;20.50;31.03;101581.66;5025740;28;20030;-66
2022/05/03 11:19:21;;;;;;;2.72;1.70;;;;;;;20.01;30.66;101592.31;4999345;28;20046;-66
2022/05/03 11:21:49;;;;;;;6.07;1.67;;;;;;;20.35;32.77;101577.38;5005907;28;20029;-65
2022/05/03 11:24:23;;;;;;;4.18;1.95;;;;;;;20.46;32.08;101575.97;5001077;28;20118;-66
2022/05/03 11:26:51;;;;;;;5.05;2.58;;;;;;;20.15;30.41;101574.72;5003616;28;20060;-68
2022/05/03 11:29:17;;;;;;;2.13;1.70;;;;;;;20.32;31.43;101572.50;5003634;28;20057;-68
2022/05/03 11:31:53;;;;;;;4.43;2.22;;;;;;;20.23;31.72;101576.38;5004299;28;20404;-68
2022/05/03 11:34:20;;;;;;;2.83;2.42;;;;;;;20.21;32.40;101566.03;4999995;28;20175;-66
2022/05/03 11:36:47;;;;;;;2.95;2.38;;;;;;;20.18;32.42;101576.16;5002201;28;20128;-66
2022/05/03 11:39:14;;;;;;;4.75;2.42;;;;;;;20.33;32.62;101565.44;4994763;28;20034;-65
2022/05/03 11:41:42;;;;;;;4.55;2.63;;;;;;;20.53;33.00;101565.41;5081372;28;20036;-66
2022/05/03 11:44:08;;;;;;;4.15;3.03;;;;;;;20.62;32.67;101553.69;5088078;28;20030;-66
2022/05/03 11:46:33;;;;;;;3.50;2.42;;;;;;;20.52;33.17;101559.34;5008898;28;20042;-66
2022/05/03 11:49:02;;;;;;;4.07;2.55;;;;;;;20.40;31.81;101561.00;5003491;28;20088;-66
2022/05/03 11:57:08;;;;;;;3.55;2.33;;;;;;;20.23;32.48;101539.53;4998081;28;20128;-66
2022/05/03 11:59:35;;;;;;;3.50;2.38;;;;;;;20.10;33.84;101542.94;5002121;28;20168;-66
2022/05/03 12:02:29;;;;;;;7.07;2.80;;;;;;;20.55;33.44;101542.31;5002359;28;20125;-66
2022/05/03 12:05:11;;;;;;;15.48;9.45;;;;;;;20.48;33.76;101533.63;5006032;28;20057;-66
2022/05/03 12:07:41;;;;;;;4.80;2.58;;;;;;;20.49;33.06;101540.50;5012120;28;20037;-66
2022/05/03 12:10:20;;;;;;;8.48;2.50;;;;;;;20.89;33.70;101537.84;5002533;28;20402;-66
2022/05/03 12:13:13;;;;;;;5.25;3.33;;;;;;;20.56;32.46;101530.78;5004409;28;20073;-67
2022/05/03 12:15:45;;;;;;;3.83;2.88;;;;;;;20.72;33.20;101538.28;5018904;28;20038;-66
2022/05/03 12:18:20;;;;;;;4.18;2.92;;;;;;;20.69;32.74;101541.31;5015323;27;20049;-66
2022/05/03 12:20:53;;;;;;;2.95;2.65;;;;;;;20.40;31.99;101532.03;5006696;28;20071;-66